Time;durP1;ratioP1;P1;durP2;ratioP2;P2;SDS_P1;SDS_P2;PMS_P1;PMS_P2;Temp;Humidity;BMP_temperature;BMP_pressure;BME280_temperature;BME280_humidity;BME280_pressure;Samples;Min_cycle;Max_cycle;Signal;HPM_P1;HPM_P2
2021/07/28 00:00:46;;;;;;;5.33;4.07;;;;;;;;;;5029086;28;20703;-82
2021/07/28 00:03:14;;;;;;;8.03;4.57;;;16.90;99.90;;;;;;5027591;28;20222;-82
2021/07/28 00:05:39;;;;;;;7.60;4.77;;;16.80;99.90;;;;;;5023798;28;20183;-82
2021/07/28 00:08:05;;;;;;;5.87;4.50;;;16.80;99.90;;;;;;5021815;28;20185;-82
2021/07/28 00:10:31;;;;;;;4.63;4.17;;;;;;;;;;5021354;28;20171;-82
2021/07/28 00:12:57;;;;;;;6.63;4.10;;;;;;;;;;5020810;28;20199;-82
2021/07/28 00:15:23;;;;;;;4.53;3.93;;;16.80;99.90;;;;;;5019637;28;20199;-81
2021/07/28 00:17:55;;;;;;;4.00;3.40;;;16.70;99.90;;;;;;5019143;28;20536;-82
2021/07/28 00:23:14;;;;;;;4.03;3.00;;;16.70;99.90;;;;;;5020283;28;20231;-82
2021/07/28 00:25:43;;;;;;;6.27;3.23;;;16.70;99.90;;;;;;5021126;28;20225;-82
2021/07/28 00:28:09;;;;;;;3.37;2.43;;;16.60;99.90;;;;;;5018205;28;20181;-82
2021/07/28 00:30:35;;;;;;;4.00;2.60;;;16.50;99.90;;;;;;5019913;28;20186;-82
2021/07/28 00:33:01;;;;;;;5.77;2.90;;;;;;;;;;5018364;28;20206;-82
2021/07/28 00:35:26;;;;;;;3.70;2.43;;;16.50;99.90;;;;;;5020230;28;20684;-82
2021/07/28 00:37:54;;;;;;;3.20;2.60;;;;;;;;;;5020184;28;20174;-82
2021/07/28 00:40:20;;;;;;;3.30;2.83;;;16.50;99.90;;;;;;5019148;28;20644;-82
2021/07/28 00:42:46;;;;;;;5.97;2.70;;;;;;;;;;5021308;28;20171;-81
2021/07/28 00:45:12;;;;;;;5.20;2.60;;;16.40;99.90;;;;;;5019564;28;20300;-82
2021/07/28 00:47:38;;;;;;;3.97;2.50;;;16.40;99.90;;;;;;5019164;28;20667;-82
2021/07/28 00:50:05;;;;;;;3.07;2.67;;;16.30;99.90;;;;;;5019073;28;20179;-82
2021/07/28 00:52:37;;;;;;;4.83;2.60;;;16.30;99.90;;;;;;5020941;28;20656;-82
2021/07/28 00:55:05;;;;;;;3.03;2.23;;;16.40;99.90;;;;;;5021731;28;20194;-82
2021/07/28 00:57:30;;;;;;;3.20;2.50;;;16.40;99.90;;;;;;5021914;28;20167;-82
2021/07/28 00:59:56;;;;;;;3.40;2.40;;;;;;;;;;5019863;28;20170;-82
2021/07/28 01:02:24;;;;;;;3.07;2.60;;;;;;;;;;5019443;28;20178;-82
2021/07/28 01:04:51;;;;;;;4.03;2.50;;;16.40;99.90;;;;;;5019581;28;20571;-82
2021/07/28 01:07:17;;;;;;;2.73;2.27;;;;;;;;;;5019598;28;20641;-82
2021/07/28 01:09:43;;;;;;;2.80;2.30;;;;;;;;;;5019733;28;20171;-82
2021/07/28 01:12:09;;;;;;;2.60;2.37;;;;;;;;;;5021333;28;20206;-83
2021/07/28 01:14:35;;;;;;;3.40;2.47;;;16.50;99.90;;;;;;5021528;28;20202;-82
2021/07/28 01:17:01;;;;;;;2.53;2.20;;;;;;;;;;5022394;28;20227;-82
2021/07/28 01:19:39;;;;;;;2.83;2.30;;;16.40;99.90;;;;;;5022071;28;20178;-82
2021/07/28 01:22:05;;;;;;;3.57;2.27;;;16.40;99.90;;;;;;5023155;28;20185;-82
2021/07/28 01:24:31;;;;;;;3.90;2.60;;;;;;;;;;5021199;28;20232;-82
2021/07/28 01:27:01;;;;;;;3.83;2.20;;;16.50;99.90;;;;;;5022095;28;20183;-82
2021/07/28 01:29:28;;;;;;;3.23;2.47;;;16.40;99.90;;;;;;5023819;28;20179;-82
2021/07/28 01:31:54;;;;;;;4.10;2.33;;;16.40;99.90;;;;;;5022956;28;20207;-83
2021/07/28 01:34:20;;;;;;;2.70;2.33;;;16.50;99.90;;;;;;5022406;28;20203;-82
2021/07/28 01:36:48;;;;;;;2.77;2.33;;;16.50;99.90;;;;;;5029839;28;20225;-82
2021/07/28 01:39:14;;;;;;;4.50;2.87;;;;;;;;;;5037166;28;20167;-82
2021/07/28 01:41:40;;;;;;;3.83;2.67;;;;;;;;;;5028708;28;20210;-82
2021/07/28 01:44:06;;;;;;;3.00;2.67;;;16.70;99.90;;;;;;5021238;28;20210;-83
2021/07/28 01:46:32;;;;;;;2.77;1.93;;;;;;;;;;5021519;28;20217;-83
2021/07/28 01:48:57;;;;;;;6.53;3.10;;;16.50;99.90;;;;;;5022310;28;20182;-82
2021/07/28 01:51:23;;;;;;;3.20;2.60;;;;;;;;;;5023781;28;20206;-83
2021/07/28 01:53:49;;;;;;;4.13;2.50;;;16.50;99.90;;;;;;5022067;28;20198;-83
2021/07/28 01:56:17;;;;;;;5.47;2.67;;;;;;;;;;5021960;28;20178;-83
2021/07/28 01:58:52;;;;;;;2.93;2.47;;;;;;;;;;5023338;28;20183;-83
2021/07/28 02:01:18;;;;;;;4.70;2.70;;;16.50;99.90;;;;;;5025311;28;20167;-83
2021/07/28 02:03:44;;;;;;;8.33;2.53;;;;;;;;;;5023356;28;20206;-83
2021/07/28 02:06:10;;;;;;;2.80;2.23;;;;;;;;;;5022880;28;20186;-83
2021/07/28 02:08:36;;;;;;;6.77;2.33;;;;;;;;;;5023789;28;20210;-83
2021/07/28 02:11:02;;;;;;;3.10;2.43;;;;;;;;;;5025589;28;20202;-83
2021/07/28 02:13:28;;;;;;;3.63;2.70;;;;;;;;;;5023826;28;20183;-83
2021/07/28 02:15:54;;;;;;;3.03;2.47;;;;;;;;;;5020347;28;20182;-82
2021/07/28 02:18:20;;;;;;;4.67;3.20;;;;;;;;;;5016463;28;20269;-82
2021/07/28 02:20:46;;;;;;;5.03;3.03;;;;;;;;;;5016617;28;20179;-82
2021/07/28 02:23:12;;;;;;;3.37;3.07;;;;;;;;;;5016462;28;20543;-83
2021/07/28 02:25:38;;;;;;;4.90;2.43;;;16.70;99.90;;;;;;5016249;28;20210;-83
2021/07/28 02:28:04;;;;;;;3.73;3.03;;;;;;;;;;5016153;28;20277;-82
2021/07/28 02:30:30;;;;;;;6.47;2.60;;;16.90;99.90;;;;;;5016483;28;20183;-82
2021/07/28 02:32:55;;;;;;;3.33;2.77;;;16.60;99.90;;;;;;5016958;28;20281;-82
2021/07/28 02:35:21;;;;;;;3.90;3.10;;;16.70;99.90;;;;;;5015929;28;20242;-83
2021/07/28 02:37:47;;;;;;;5.70;3.10;;;;;;;;;;5017790;28;20190;-82
2021/07/28 02:40:15;;;;;;;5.03;3.00;;;;;;;;;;5015473;28;20179;-82
2021/07/28 02:42:41;;;;;;;6.50;3.63;;;;;;;;;;5017673;28;20179;-82
2021/07/28 02:45:07;;;;;;;5.53;3.20;;;16.50;99.90;;;;;;5017590;28;20250;-82
2021/07/28 02:47:33;;;;;;;4.40;2.97;;;;;;;;;;5016228;28;20194;-82
2021/07/28 02:49:59;;;;;;;7.23;3.60;;;;;;;;;;5016431;28;20218;-82
2021/07/28 02:52:25;;;;;;;4.87;3.20;;;16.60;99.90;;;;;;5016603;28;20574;-82
2021/07/28 02:54:51;;;;;;;4.77;3.67;;;;;;;;;;5017531;28;20277;-82
2021/07/28 02:57:17;;;;;;;8.90;3.40;;;16.60;99.90;;;;;;5017871;28;20171;-82
2021/07/28 02:59:43;;;;;;;5.13;3.47;;;16.60;99.90;;;;;;5015938;28;20179;-82
2021/07/28 03:02:09;;;;;;;4.97;3.20;;;;;;;;;;5017808;28;20189;-82
2021/07/28 03:04:35;;;;;;;5.90;3.60;;;;;;;;;;5015910;28;20203;-82
2021/07/28 03:07:00;;;;;;;6.87;3.07;;;16.60;99.90;;;;;;5016568;28;20194;-82
2021/07/28 03:09:27;;;;;;;4.10;3.60;;;;;;;;;;5016619;28;20182;-82
2021/07/28 03:11:53;;;;;;;4.23;3.50;;;;;;;;;;5016575;28;20242;-82
2021/07/28 03:14:18;;;;;;;4.30;3.57;;;16.70;99.90;;;;;;5016130;28;20214;-82
2021/07/28 03:16:44;;;;;;;5.77;3.63;;;;;;;;;;5017773;28;20183;-82
2021/07/28 03:19:10;;;;;;;3.47;3.17;;;16.70;99.90;;;;;;5018301;28;20171;-82
2021/07/28 03:21:36;;;;;;;4.57;3.60;;;;;;;;;;5016863;28;20551;-82
2021/07/28 03:24:02;;;;;;;8.00;4.00;;;16.60;99.90;;;;;;5016292;28;20564;-82
2021/07/28 03:26:28;;;;;;;4.40;3.67;;;;;;;;;;5017682;28;20190;-82
2021/07/28 03:28:54;;;;;;;4.87;3.93;;;16.60;99.90;;;;;;5016261;28;20186;-82
2021/07/28 03:31:20;;;;;;;4.20;3.63;;;;;;;;;;5018225;28;20590;-82
2021/07/28 03:33:46;;;;;;;4.53;3.50;;;;;;;;;;5016665;28;20257;-82
2021/07/28 03:36:12;;;;;;;5.87;3.93;;;;;;;;;;5018248;28;20259;-82
2021/07/28 03:38:38;;;;;;;4.67;3.60;;;;;;;;;;5019223;28;20171;-82
2021/07/28 03:41:04;;;;;;;6.27;4.43;;;;;;;;;;5018743;28;20178;-82
2021/07/28 03:43:29;;;;;;;4.37;3.80;;;16.60;99.90;;;;;;5017260;28;20702;-82
2021/07/28 03:45:55;;;;;;;4.80;4.10;;;;;;;;;;5017294;28;20289;-82
2021/07/28 03:48:21;;;;;;;4.40;3.80;;;16.60;99.90;;;;;;5018215;28;20187;-82
2021/07/28 03:50:47;;;;;;;8.77;4.50;;;16.60;99.90;;;;;;5018493;28;20175;-82
2021/07/28 03:53:12;;;;;;;7.43;4.40;;;16.60;99.90;;;;;;5018608;28;20232;-83
2021/07/28 03:55:38;;;;;;;5.53;4.10;;;;;;;;;;5021028;28;20214;-83
2021/07/28 03:58:04;;;;;;;4.83;4.17;;;;;;;;;;5021105;28;20170;-83
2021/07/28 04:00:30;;;;;;;6.77;4.93;;;16.70;99.90;;;;;;5020362;28;20183;-83
2021/07/28 04:02:56;;;;;;;4.50;4.10;;;;;;;;;;5021262;28;20190;-82
2021/07/28 04:05:22;;;;;;;6.00;4.70;;;16.60;99.90;;;;;;5020757;28;20198;-83
2021/07/28 04:07:56;;;;;;;5.27;4.33;;;16.60;99.90;;;;;;5019594;28;20186;-82
2021/07/28 04:10:22;;;;;;;4.27;3.70;;;16.60;99.90;;;;;;5019873;28;20175;-83
2021/07/28 04:12:48;;;;;;;7.37;4.53;;;;;;;;;;5019969;28;20229;-83
2021/07/28 04:15:14;;;;;;;5.43;4.10;;;;;;;;;;5021155;28;20198;-83
2021/07/28 04:17:40;;;;;;;5.70;5.00;;;;;;;;;;5022829;28;20628;-83
2021/07/28 04:20:06;;;;;;;8.20;5.40;;;16.80;99.90;;;;;;5025345;28;20264;-83
2021/07/28 04:22:32;;;;;;;7.37;5.70;;;16.60;99.90;;;;;;5025902;28;20243;-83
2021/07/28 04:24:57;;;;;;;9.00;6.47;;;16.70;99.90;;;;;;5025433;28;20202;-83
2021/07/28 04:27:27;;;;;;;8.47;6.30;;;16.70;99.90;;;;;;5025384;28;20210;-83
2021/07/28 04:29:52;;;;;;;7.17;5.73;;;16.70;99.90;;;;;;5018852;28;20187;-82
2021/07/28 04:32:18;;;;;;;7.60;5.90;;;16.80;99.90;;;;;;5014973;28;20618;-82
2021/07/28 04:34:44;;;;;;;9.97;5.87;;;16.80;99.90;;;;;;5016733;28;20541;-82
2021/07/28 04:37:09;;;;;;;8.87;6.53;;;16.90;99.90;;;;;;5016060;28;20282;-82
2021/07/28 04:39:35;;;;;;;10.73;7.23;;;16.90;99.90;;;;;;5015132;28;20234;-82
2021/07/28 04:42:01;;;;;;;11.27;6.33;;;16.90;99.90;;;;;;5016033;28;20187;-82
2021/07/28 04:44:26;;;;;;;7.17;6.47;;;16.90;99.90;;;;;;5017253;28;20272;-82
2021/07/28 04:46:54;;;;;;;7.03;6.07;;;16.90;99.90;;;;;;5017518;28;20185;-82
2021/07/28 04:49:19;;;;;;;9.27;6.83;;;16.90;99.90;;;;;;5016543;28;20206;-82
2021/07/28 04:51:45;;;;;;;8.70;6.80;;;17.00;99.90;;;;;;5018493;28;20202;-82
2021/07/28 04:54:11;;;;;;;8.47;7.63;;;;;;;;;;5017497;28;20198;-82
2021/07/28 04:56:36;;;;;;;8.37;7.07;;;17.00;99.90;;;;;;5018066;28;20536;-82
2021/07/28 04:59:02;;;;;;;8.07;5.87;;;17.10;99.90;;;;;;5016257;28;20181;-82
2021/07/28 05:01:28;;;;;;;8.87;6.97;;;;;;;;;;5018377;28;20186;-82
2021/07/28 05:03:54;;;;;;;8.23;5.40;;;17.10;99.90;;;;;;5018197;28;20230;-82
2021/07/28 05:06:19;;;;;;;7.67;5.97;;;17.10;99.90;;;;;;5021529;28;20186;-82
2021/07/28 05:08:45;;;;;;;6.87;6.03;;;17.10;99.90;;;;;;5022282;28;20206;-82
2021/07/28 05:11:10;;;;;;;10.40;6.83;;;17.10;99.90;;;;;;5022408;28;20190;-82
2021/07/28 05:13:36;;;;;;;7.73;5.90;;;17.10;99.90;;;;;;5021654;28;20684;-82
2021/07/28 05:16:02;;;;;;;8.47;6.80;;;17.10;99.90;;;;;;5023263;28;20525;-82
2021/07/28 05:18:27;;;;;;;8.13;6.10;;;17.10;99.90;;;;;;5023017;28;20655;-82
2021/07/28 05:20:53;;;;;;;8.37;6.83;;;17.10;99.90;;;;;;5022020;28;20178;-82
2021/07/28 05:23:19;;;;;;;9.90;7.27;;;17.20;99.90;;;;;;5021343;28;20193;-82
2021/07/28 05:25:45;;;;;;;9.50;7.10;;;;;;;;;;5022529;28;20261;-81
2021/07/28 05:28:10;;;;;;;9.73;7.00;;;17.10;99.90;;;;;;5023569;28;20189;-81
2021/07/28 05:30:36;;;;;;;9.20;7.43;;;17.10;99.90;;;;;;5024146;28;20179;-81
2021/07/28 05:33:02;;;;;;;8.53;6.93;;;17.20;99.90;;;;;;5020610;28;20214;-81
2021/07/28 05:35:27;;;;;;;8.63;7.23;;;17.20;99.90;;;;;;5021001;28;20202;-81
2021/07/28 05:38:01;;;;;;;7.77;6.73;;;17.30;99.90;;;;;;5022353;28;20171;-82
2021/07/28 05:40:26;;;;;;;8.43;6.73;;;17.30;99.90;;;;;;5021865;28;20174;-82
2021/07/28 05:42:52;;;;;;;9.70;7.33;;;17.40;99.90;;;;;;5020650;28;20265;-82
2021/07/28 05:45:18;;;;;;;11.03;7.67;;;17.40;99.90;;;;;;5023330;28;20207;-83
2021/07/28 05:47:45;;;;;;;9.93;7.20;;;17.50;99.90;;;;;;5023497;28;20182;-83
2021/07/28 05:50:14;;;;;;;10.07;7.67;;;17.50;99.90;;;;;;5022374;28;20237;-83
2021/07/28 05:52:40;;;;;;;14.13;10.30;;;17.60;99.90;;;;;;5023112;28;20245;-83
2021/07/28 05:55:06;;;;;;;9.80;8.23;;;17.60;99.90;;;;;;5022018;28;20216;-83
2021/07/28 05:57:32;;;;;;;8.00;7.10;;;17.70;99.90;;;;;;5021787;28;20660;-83
2021/07/28 05:59:58;;;;;;;9.30;7.83;;;17.70;99.90;;;;;;5020983;28;20182;-82
2021/07/28 06:02:23;;;;;;;10.33;7.07;;;17.70;99.90;;;;;;5022776;28;20193;-84
2021/07/28 06:04:49;;;;;;;8.73;7.83;;;17.70;99.90;;;;;;5022931;28;20298;-83
2021/07/28 06:07:15;;;;;;;11.40;8.47;;;17.80;99.90;;;;;;5022332;28;20186;-83
2021/07/28 06:09:41;;;;;;;12.13;8.27;;;17.80;99.90;;;;;;5024488;28;20174;-82
2021/07/28 06:12:07;;;;;;;10.33;8.37;;;17.90;99.90;;;;;;5023405;28;20210;-83
2021/07/28 06:14:33;;;;;;;7.90;7.10;;;17.90;99.90;;;;;;5022460;28;20661;-82
2021/07/28 06:16:59;;;;;;;11.47;7.33;;;17.80;99.90;;;;;;5023460;28;20180;-83
2021/07/28 06:19:25;;;;;;;8.90;7.03;;;17.80;99.90;;;;;;5023644;28;20573;-82
2021/07/28 06:21:50;;;;;;;10.07;8.07;;;17.90;99.90;;;;;;5024364;28;20211;-82
2021/07/28 06:24:16;;;;;;;11.33;7.67;;;17.80;99.90;;;;;;5025648;28;20271;-83
2021/07/28 06:26:41;;;;;;;9.73;7.77;;;17.90;99.90;;;;;;5024789;28;20186;-82
2021/07/28 06:29:07;;;;;;;11.10;7.67;;;18.00;99.90;;;;;;5026461;28;20183;-83
2021/07/28 06:31:33;;;;;;;8.20;7.37;;;18.00;99.90;;;;;;5026005;28;20289;-82
2021/07/28 06:33:58;;;;;;;12.73;9.30;;;18.00;99.90;;;;;;5023249;28;20222;-82
2021/07/28 06:36:24;;;;;;;10.53;8.83;;;18.00;99.90;;;;;;5024558;28;20242;-82
2021/07/28 06:38:50;;;;;;;9.37;7.67;;;18.10;99.90;;;;;;5024361;28;20179;-82
2021/07/28 06:41:15;;;;;;;10.93;8.33;;;18.20;99.90;;;;;;5028814;28;20186;-83
2021/07/28 06:43:41;;;;;;;9.57;8.13;;;18.20;99.90;;;;;;5023248;28;20222;-83
2021/07/28 06:46:06;;;;;;;13.30;9.33;;;18.20;99.90;;;;;;5024827;28;20662;-83
2021/07/28 06:48:32;;;;;;;14.73;9.10;;;18.20;99.90;;;;;;5024232;28;20178;-83
2021/07/28 06:50:58;;;;;;;12.97;8.33;;;18.20;99.90;;;;;;5025336;28;20182;-83
2021/07/28 06:53:23;;;;;;;11.20;9.67;;;18.20;99.90;;;;;;5026505;28;20222;-83
2021/07/28 06:55:55;;;;;;;10.57;8.37;;;18.30;99.90;;;;;;5025530;28;20243;-83
2021/07/28 06:58:20;;;;;;;10.57;8.93;;;18.20;99.90;;;;;;5027057;28;20175;-83
2021/07/28 07:00:47;;;;;;;9.63;8.53;;;18.20;99.90;;;;;;5027430;28;20175;-83
2021/07/28 07:03:13;;;;;;;9.00;7.93;;;18.10;99.90;;;;;;5025443;28;20178;-82
2021/07/28 07:05:38;;;;;;;8.97;8.07;;;18.00;99.90;;;;;;5036177;28;20176;-82
2021/07/28 07:08:04;;;;;;;11.03;8.70;;;18.00;99.90;;;;;;5035433;28;20176;-82
2021/07/28 07:10:30;;;;;;;12.13;8.80;;;17.90;99.90;;;;;;5027053;28;20176;-83
2021/07/28 07:12:55;;;;;;;9.67;8.23;;;17.90;99.90;;;;;;5026277;28;20293;-83
2021/07/28 07:15:21;;;;;;;9.27;8.13;;;17.90;99.90;;;;;;5026449;28;20208;-83
2021/07/28 07:17:47;;;;;;;10.40;8.90;;;17.90;99.90;;;;;;5027705;28;20175;-83
2021/07/28 07:20:13;;;;;;;10.77;8.53;;;17.80;99.90;;;;;;5026202;28;20178;-83
2021/07/28 07:22:39;;;;;;;10.03;8.70;;;17.80;99.90;;;;;;5022057;28;20270;-82
2021/07/28 07:25:05;;;;;;;11.87;9.13;;;17.80;99.90;;;;;;5019645;28;20237;-83
2021/07/28 07:27:31;;;;;;;10.53;8.93;;;17.70;99.90;;;;;;5019116;28;20648;-82
2021/07/28 07:29:57;;;;;;;13.40;9.20;;;17.70;99.90;;;;;;5019167;28;20683;-82
2021/07/28 07:32:26;;;;;;;10.30;9.17;;;17.70;99.90;;;;;;5019256;28;20706;-82
2021/07/28 07:34:52;;;;;;;10.10;9.10;;;17.70;99.90;;;;;;5018843;28;20207;-82
2021/07/28 07:37:17;;;;;;;10.03;8.43;;;17.70;99.90;;;;;;5019686;28;20184;-82
2021/07/28 07:39:43;;;;;;;10.63;8.80;;;17.70;99.90;;;;;;5019567;28;20172;-82
2021/07/28 07:42:09;;;;;;;11.87;9.20;;;17.60;99.90;;;;;;5026261;28;20274;-82
2021/07/28 07:44:34;;;;;;;15.90;9.43;;;17.60;99.90;;;;;;5024166;28;20250;-82
2021/07/28 07:47:00;;;;;;;11.57;9.00;;;17.60;99.90;;;;;;5022826;28;20262;-82
2021/07/28 07:49:26;;;;;;;11.00;9.27;;;17.60;99.90;;;;;;5019845;28;20189;-83
2021/07/28 07:51:51;;;;;;;12.90;9.13;;;17.60;99.90;;;;;;5020387;28;20213;-82
2021/07/28 07:54:17;;;;;;;13.30;9.40;;;17.60;99.90;;;;;;5017913;28;20208;-82
2021/07/28 07:56:43;;;;;;;10.07;8.33;;;17.60;99.90;;;;;;5018261;28;20552;-82
2021/07/28 07:59:08;;;;;;;9.53;8.30;;;17.50;99.90;;;;;;5019814;28;20628;-82
2021/07/28 08:01:34;;;;;;;10.83;7.73;;;17.50;99.90;;;;;;5019867;28;20213;-82
2021/07/28 08:04:00;;;;;;;10.67;7.20;;;17.50;99.90;;;;;;5020108;28;20275;-82
2021/07/28 08:06:25;;;;;;;11.60;6.83;;;17.40;99.90;;;;;;5021865;28;20629;-82
2021/07/28 08:08:51;;;;;;;10.13;7.30;;;17.30;99.90;;;;;;5022546;28;20622;-82
2021/07/28 08:11:16;;;;;;;10.47;6.53;;;17.20;99.90;;;;;;5020411;28;20187;-82
2021/07/28 08:13:42;;;;;;;8.37;6.77;;;17.20;99.90;;;;;;5021345;28;20254;-82
2021/07/28 08:16:18;;;;;;;8.47;6.53;;;17.10;99.90;;;;;;5019868;28;20180;-81
2021/07/28 08:18:45;;;;;;;7.13;5.80;;;17.10;99.90;;;;;;5020355;28;20174;-82
2021/07/28 08:21:12;;;;;;;7.30;5.53;;;17.00;99.90;;;;;;5020799;28;20214;-82
2021/07/28 08:23:39;;;;;;;8.17;6.50;;;16.90;99.90;;;;;;5020155;28;20546;-82
2021/07/28 08:26:04;;;;;;;7.97;6.43;;;16.90;99.90;;;;;;5019718;28;20183;-82
2021/07/28 08:28:30;;;;;;;6.97;5.73;;;;;;;;;;5020745;28;20190;-82
2021/07/28 08:30:56;;;;;;;7.73;6.00;;;16.90;99.90;;;;;;5020782;28;20237;-82
2021/07/28 08:33:24;;;;;;;9.40;5.57;;;16.90;99.90;;;;;;5020009;28;20207;-82
2021/07/28 08:35:50;;;;;;;7.60;5.50;;;16.90;99.90;;;;;;5020826;28;20357;-82
2021/07/28 08:38:20;;;;;;;7.63;6.20;;;16.90;99.90;;;;;;5021770;28;20207;-82
2021/07/28 08:40:49;;;;;;;9.20;6.07;;;17.00;99.90;;;;;;5023492;28;20178;-82
2021/07/28 08:43:20;;;;;;;7.80;6.33;;;17.00;99.90;;;;;;5025215;28;20659;-82
2021/07/28 08:45:48;;;;;;;6.73;5.70;;;17.00;99.90;;;;;;5023822;28;20206;-82
2021/07/28 08:48:19;;;;;;;7.63;5.67;;;17.10;99.90;;;;;;5024430;28;20637;-82
2021/07/28 08:50:49;;;;;;;8.10;5.57;;;17.10;99.90;;;;;;5025020;28;20159;-82
2021/07/28 08:53:14;;;;;;;6.87;5.67;;;17.10;99.90;;;;;;5023687;28;20207;-81
2021/07/28 08:55:40;;;;;;;8.50;5.33;;;17.10;99.90;;;;;;5020025;28;20257;-81
2021/07/28 08:58:09;;;;;;;6.50;5.40;;;17.20;99.90;;;;;;5018597;28;20656;-81
2021/07/28 09:00:45;;;;;;;5.97;5.30;;;17.30;99.90;;;;;;5018212;28;20187;-81
2021/07/28 09:03:12;;;;;;;6.70;4.70;;;17.30;99.90;;;;;;5020050;28;20179;-81
2021/07/28 09:05:43;;;;;;;6.37;5.00;;;17.30;99.90;;;;;;5019241;28;20226;-81
2021/07/28 09:08:29;;;;;;;6.47;5.03;;;17.30;99.90;;;;;;5018560;28;20190;-81
2021/07/28 09:11:05;;;;;;;7.33;5.23;;;17.30;99.90;;;;;;5019230;28;20190;-81
2021/07/28 09:13:35;;;;;;;5.43;4.70;;;17.30;99.90;;;;;;5020303;28;20202;-81
2021/07/28 09:16:06;;;;;;;5.07;4.57;;;17.30;99.90;;;;;;5018594;28;20175;-81
2021/07/28 09:18:34;;;;;;;6.60;4.63;;;17.30;99.90;;;;;;5019160;28;20231;-81
2021/07/28 09:21:03;;;;;;;6.60;4.27;;;17.30;99.90;;;;;;5019049;28;20182;-81
2021/07/28 09:23:39;;;;;;;5.43;4.47;;;17.20;99.90;;;;;;5018370;28;20211;-81
2021/07/28 09:26:39;;;;;;;6.60;4.87;;;17.20;99.90;;;;;;5021846;28;20179;-81
2021/07/28 09:29:07;;;;;;;5.83;4.53;;;17.20;99.90;;;;;;5020238;28;20170;-81
2021/07/28 09:31:36;;;;;;;6.53;4.50;;;17.10;99.90;;;;;;5020924;28;20209;-82
2021/07/28 09:34:23;;;;;;;6.17;4.33;;;17.00;99.90;;;;;;5019015;28;20202;-81
2021/07/28 09:36:53;;;;;;;5.50;4.90;;;17.00;99.90;;;;;;5019028;28;20249;-81
2021/07/28 09:39:27;;;;;;;5.83;4.57;;;16.90;99.90;;;;;;5018290;28;20171;-82
2021/07/28 09:41:54;;;;;;;7.60;4.97;;;16.90;99.90;;;;;;5018419;28;20179;-81
2021/07/28 09:44:30;;;;;;;6.80;5.10;;;16.90;99.90;;;;;;5019548;28;20210;-81
2021/07/28 09:47:13;;;;;;;6.47;4.70;;;16.90;99.90;;;;;;5020320;28;20190;-81
2021/07/28 09:49:44;;;;;;;4.77;4.30;;;16.90;99.90;;;;;;5020504;28;20328;-81
2021/07/28 09:52:23;;;;;;;5.87;4.80;;;16.90;99.90;;;;;;5021936;28;20218;-81
2021/07/28 09:54:56;;;;;;;7.90;4.60;;;17.10;99.90;;;;;;5023177;28;20220;-81
2021/07/28 09:57:23;;;;;;;7.03;5.23;;;17.20;99.90;;;;;;5021892;28;20651;-81
2021/07/28 10:00:08;;;;;;;7.00;5.03;;;17.20;99.90;;;;;;5021850;28;20183;-81
2021/07/28 10:02:35;;;;;;;6.97;5.03;;;17.40;99.90;;;;;;5021192;28;20182;-81
2021/07/28 10:05:03;;;;;;;7.90;4.87;;;17.50;99.90;;;;;;5023634;28;20233;-81
2021/07/28 10:07:30;;;;;;;6.00;4.70;;;17.60;99.90;;;;;;5022325;28;20187;-81
2021/07/28 10:10:11;;;;;;;8.13;4.73;;;17.60;99.90;;;;;;5022091;28;20217;-81
2021/07/28 10:12:39;;;;;;;5.23;4.73;;;17.70;99.90;;;;;;5021844;28;20198;-81
2021/07/28 10:15:07;;;;;;;5.17;4.67;;;17.80;99.90;;;;;;5021892;28;20195;-80
2021/07/28 10:17:35;;;;;;;6.10;4.33;;;17.90;99.90;;;;;;5022235;28;20179;-81
2021/07/28 10:20:01;;;;;;;4.97;4.30;;;18.00;99.90;;;;;;5023836;28;20183;-81
2021/07/28 10:22:27;;;;;;;5.63;4.27;;;18.20;99.90;;;;;;5016473;28;20271;-83
2021/07/28 10:24:54;;;;;;;5.23;3.90;;;18.20;99.90;;;;;;5023583;28;20272;-81
2021/07/28 10:27:22;;;;;;;5.30;4.20;;;18.20;99.90;;;;;;5038361;28;20267;-81
2021/07/28 10:29:50;;;;;;;4.33;3.87;;;18.20;99.90;;;;;;5035089;28;20207;-81
2021/07/28 10:32:33;;;;;;;4.90;3.87;;;18.20;99.90;;;;;;5028062;28;20734;-81
2021/07/28 10:35:18;;;;;;;6.37;3.80;;;18.30;99.90;;;;;;5024107;28;20199;-82
2021/07/28 10:37:44;;;;;;;5.27;4.10;;;18.30;99.90;;;;;;5023516;28;20220;-81
2021/07/28 10:40:31;;;;;;;5.80;4.07;;;18.30;99.90;;;;;;5022049;28;20244;-81
2021/07/28 10:42:57;;;;;;;4.70;4.20;;;18.40;99.90;;;;;;5024978;28;20175;-81
2021/07/28 10:45:24;;;;;;;5.40;3.70;;;18.50;99.90;;;;;;5025303;28;20221;-82
2021/07/28 10:47:53;;;;;;;7.00;4.40;;;18.50;99.90;;;;;;5025207;28;20184;-81
2021/07/28 10:50:25;;;;;;;4.93;3.90;;;18.40;99.90;;;;;;5025015;28;20246;-81
2021/07/28 10:52:51;;;;;;;5.03;4.20;;;18.30;99.90;;;;;;5023695;28;20210;-81
2021/07/28 10:55:21;;;;;;;3.83;3.43;;;18.20;99.90;;;;;;5029085;28;20195;-82
2021/07/28 10:57:53;;;;;;;3.57;3.27;;;18.20;99.90;;;;;;5026992;28;20184;-82
2021/07/28 11:03:05;;;;;;;3.60;3.30;;;18.20;99.90;;;;;;5029376;28;20185;-82
2021/07/28 11:05:36;;;;;;;3.43;3.13;;;18.20;99.90;;;;;;5030050;28;20573;-81
2021/07/28 11:08:02;;;;;;;3.43;3.13;;;18.20;99.90;;;;;;5028004;28;20175;-82
2021/07/28 11:10:29;;;;;;;4.40;3.23;;;18.20;99.90;;;;;;5024938;28;20199;-83
2021/07/28 11:12:55;;;;;;;3.30;2.93;;;18.30;99.90;;;;;;5023204;28;20294;-82
2021/07/28 11:15:21;;;;;;;5.10;3.13;;;18.30;99.90;;;;;;5021869;28;20208;-83
2021/07/28 11:17:52;;;;;;;5.23;3.00;;;18.40;99.90;;;;;;5022983;28;20226;-82
2021/07/28 11:20:35;;;;;;;3.70;3.27;;;18.50;99.90;;;;;;5021898;28;20511;-82
2021/07/28 11:23:27;;;;;;;4.20;3.30;;;18.60;99.90;;;;;;5020198;28;20183;-82
2021/07/28 11:26:01;;;;;;;4.13;3.00;;;18.70;99.90;;;;;;5019812;28;20173;-82
2021/07/28 11:28:28;;;;;;;3.33;3.00;;;18.90;99.90;;;;;;5020417;28;20262;-81
2021/07/28 11:31:01;;;;;;;4.53;3.33;;;18.90;99.90;;;;;;5020530;28;20190;-82
2021/07/28 11:33:31;;;;;;;3.20;2.83;;;19.00;99.90;;;;;;5020342;28;20226;-83
2021/07/28 11:35:58;;;;;;;3.50;3.20;;;19.10;99.90;;;;;;5020602;28;20192;-84
2021/07/28 11:38:31;;;;;;;3.40;3.10;;;19.20;99.90;;;;;;5022093;28;20782;-82
2021/07/28 11:40:58;;;;;;;3.13;2.60;;;19.20;99.90;;;;;;5023966;28;20168;-83
2021/07/28 11:43:41;;;;;;;3.27;2.97;;;19.20;99.90;;;;;;5016313;28;20176;-82
2021/07/28 11:46:18;;;;;;;2.80;2.60;;;19.20;99.90;;;;;;5021062;28;20629;-82
2021/07/28 11:48:45;;;;;;;2.87;2.57;;;19.30;99.90;;;;;;5022607;28;20184;-82
2021/07/28 11:51:24;;;;;;;3.03;2.50;;;19.10;99.90;;;;;;5022128;28;20185;-82
2021/07/28 11:53:51;;;;;;;2.60;2.40;;;19.10;99.90;;;;;;5021619;28;20228;-82
2021/07/28 11:56:17;;;;;;;2.60;2.37;;;19.00;99.90;;;;;;5022252;28;20235;-82
2021/07/28 11:58:48;;;;;;;3.70;2.70;;;18.90;99.90;;;;;;5021794;28;20198;-81
2021/07/28 12:01:27;;;;;;;2.50;2.30;;;18.90;99.90;;;;;;5024026;28;20175;-82
2021/07/28 12:04:05;;;;;;;2.60;2.10;;;18.80;99.90;;;;;;5024193;28;20249;-82
2021/07/28 12:06:34;;;;;;;2.63;2.43;;;18.80;99.90;;;;;;5024105;28;20190;-82
2021/07/28 12:09:25;;;;;;;3.30;2.67;;;19.00;99.90;;;;;;5023611;28;20177;-82
2021/07/28 12:11:55;;;;;;;3.07;2.40;;;19.10;99.90;;;;;;5022442;28;20212;-83
2021/07/28 12:14:28;;;;;;;4.60;2.40;;;19.10;99.90;;;;;;5022592;28;20559;-85
2021/07/28 12:16:58;;;;;;;3.20;2.40;;;19.10;99.90;;;;;;5022053;28;20539;-84
2021/07/28 12:19:32;;;;;;;2.90;2.60;;;19.10;99.90;;;;;;5019092;28;20174;-83
2021/07/28 12:22:02;;;;;;;2.67;2.47;;;19.10;99.90;;;;;;5017792;28;20226;-83
2021/07/28 12:24:33;;;;;;;3.17;2.47;;;19.00;99.90;;;;;;5018777;28;20201;-83
2021/07/28 12:27:23;;;;;;;2.60;2.30;;;19.00;99.90;;;;;;5017829;28;20243;-84
2021/07/28 12:30:09;;;;;;;3.10;2.77;;;19.00;99.90;;;;;;5021999;28;20197;-82
2021/07/28 12:32:40;;;;;;;4.63;2.77;;;18.90;99.90;;;;;;5028359;28;20200;-83
2021/07/28 12:35:27;;;;;;;2.73;2.17;;;18.80;99.90;;;;;;5020525;28;20195;-84
2021/07/28 12:38:05;;;;;;;2.93;2.63;;;18.60;99.90;;;;;;5021602;28;20242;-83
2021/07/28 12:40:31;;;;;;;2.60;2.40;;;18.60;99.90;;;;;;5015686;28;20187;-84
2021/07/28 12:42:57;;;;;;;2.37;2.17;;;18.50;99.90;;;;;;5016571;28;20270;-83
2021/07/28 12:45:23;;;;;;;2.80;2.43;;;18.50;99.90;;;;;;5016680;28;20250;-84
2021/07/28 12:47:49;;;;;;;3.07;2.30;;;18.50;99.90;;;;;;5015872;28;20279;-84
2021/07/28 12:50:15;;;;;;;2.43;2.03;;;18.50;99.90;;;;;;5016718;28;20268;-84
2021/07/28 12:52:43;;;;;;;4.03;2.30;;;18.50;99.90;;;;;;5014822;28;20211;-84
2021/07/28 12:55:10;;;;;;;3.20;2.17;;;18.40;99.90;;;;;;5014825;28;20674;-84
2021/07/28 12:57:35;;;;;;;2.40;2.20;;;18.40;99.90;;;;;;5014866;28;20189;-84
2021/07/28 13:00:01;;;;;;;2.47;2.10;;;18.40;99.90;;;;;;5016192;28;20203;-83
2021/07/28 13:02:27;;;;;;;2.20;1.93;;;18.50;99.90;;;;;;5014251;28;20190;-83
2021/07/28 13:04:53;;;;;;;2.10;1.90;;;18.40;99.90;;;;;;5014413;28;20234;-83
2021/07/28 13:07:32;;;;;;;2.83;2.50;;;18.50;99.90;;;;;;5014010;28;20187;-82
2021/07/28 13:09:57;;;;;;;1.70;1.60;;;18.50;99.90;;;;;;5014294;28;20178;-83
2021/07/28 13:12:23;;;;;;;2.70;1.93;;;18.60;99.90;;;;;;5014371;28;20295;-83
2021/07/28 13:14:49;;;;;;;2.87;1.90;;;18.60;99.90;;;;;;5013894;28;20194;-83